Deposit, New York
Current Conditions -  °F | °C
As of 12:53 AM on Sunday 23 Nov 2014 (Local Time) from KBGM Reporting Station
Overcast Overcast  
Wind Chill: 30°   Ceiling: 3100
Heat Index: 37°   Visibility: 10mi
Dew Point: 31°   Wind: 10mph
Humidity: 79%   Direction: 210°SSW
Pressure: 30.06"   Gusts: NA
Location:  42.06°N, 75.43°W
Report Text: KBGM 230553Z AUTO 21009KT 10SM OVC031 03/M01 A3006 RMK AO2 RAE15 SLP193 P0000 60011 T00281006 10033 20017 52005
Loading
Personal Weather Stations






























Interactive Weather Map New forecast layout! Learn more

10-Day Weather Forecast

Advertisements
Track Severe Weather on mobile